.
WxDataArchive / Data Records for 2013-05-18
2013-05-17 May 2013 2013-05-19

Data Records for Saturday, 18 May 2013

Time	Temp	Chill	HIndex	Humid	Dewpt	 Wind 	HiWind	WindDir	Rain 	Barom 
-----	----	-----	------	-----	-----	------	------	-------	-----	----- 
00:00	60.9	60.9	60.9	43	38.3	1	4	90	0.00	30.066 
00:05	60.9	60.9	60.9	43	38.3	2	5	68	0.00	30.066 
00:10	60.9	60.9	60.9	43	38.3	1	4	68	0.00	30.066 
00:15	60.7	60.7	60.7	44	38.7	1	4	90	0.00	30.066 
00:20	60.5	60.5	60.5	44	38.5	1	2	90	0.00	30.066 
00:25	60.4	60.4	60.4	44	38.4	2	4	90	0.00	30.066 
00:30	60.4	60.4	60.4	44	38.4	1	4	68	0.00	30.062 
00:35	60.2	60.2	60.2	45	38.8	1	3	68	0.00	30.062 
00:40	60.1	60.1	60.1	45	38.7	0	2	68	0.00	30.062 
00:45	60.1	60.1	60.1	45	38.7	1	3	68	0.00	30.070 
00:50	59.9	59.9	59.9	46	39.1	1	4	68	0.00	30.070 
00:55	59.9	59.9	59.9	45	38.5	1	4	68	0.00	30.070 
01:00	59.8	59.8	59.8	45	38.4	1	4	90	0.00	30.069 
01:05	59.8	59.8	59.8	45	38.4	1	3	90	0.00	30.069 
01:10	59.6	59.6	59.6	45	38.2	1	3	90	0.00	30.069 
01:15	59.5	59.5	59.5	46	38.7	1	3	90	0.00	30.067 
01:20	59.5	59.5	59.5	47	39.3	1	5	90	0.00	30.067 
01:25	59.3	59.3	59.3	47	39.1	2	5	90	0.00	30.067 
01:30	59.2	59.2	59.2	48	39.5	2	7	112	0.00	30.062 
01:35	59.0	59.0	59.0	48	39.3	1	4	112	0.00	30.062 
01:40	58.9	58.9	58.9	48	39.2	2	5	90	0.00	30.062 
01:45	58.6	58.6	58.6	49	39.5	1	4	90	0.00	30.058 
01:50	58.4	58.4	58.4	49	39.3	1	4	90	0.00	30.058 
01:55	58.3	58.3	58.3	49	39.2	1	5	90	0.00	30.058 
02:00	58.1	58.1	58.1	50	39.6	1	4	90	0.00	30.056 
02:05	58.0	58.0	58.0	50	39.5	2	5	90	0.00	30.056 
02:10	58.0	58.0	58.0	50	39.5	1	6	112	0.00	30.056 
02:15	57.6	57.6	57.6	51	39.6	0	2	112	0.00	30.050 
02:20	57.5	57.5	57.5	51	39.5	1	3	112	0.00	30.050 
02:25	57.3	57.3	57.3	51	39.3	1	3	112	0.00	30.050 
02:30	57.3	57.3	57.3	51	39.3	1	3	112	0.00	30.043 
02:35	57.2	57.2	57.2	51	39.2	1	3	112	0.00	30.043 
02:40	57.0	57.0	57.0	52	39.5	0	3	112	0.00	30.043 
02:45	57.0	57.0	57.0	52	39.5	0	1	112	0.00	30.043 
02:50	56.9	56.9	56.9	52	39.5	0	2	112	0.00	30.043 
02:55	56.7	56.7	56.7	52	39.3	1	3	112	0.00	30.043 
03:00	56.7	56.7	56.7	53	39.8	0	2	112	0.00	30.041 
03:05	56.5	56.5	56.5	53	39.6	0	3	112	0.00	30.041 
03:10	56.3	56.3	56.3	54	39.9	0	1	112	0.00	30.041 
03:15	56.2	56.2	56.2	54	39.8	0	0	---	0.00	30.041 
03:20	56.0	56.0	56.0	54	39.6	0	1	112	0.00	30.041 
03:25	55.9	55.9	55.9	55	40.0	0	1	112	0.00	30.041 
03:30	55.6	55.6	55.6	56	40.2	0	0	---	0.00	30.042 
03:35	55.4	55.4	55.4	56	40.0	0	1	112	0.00	30.042 
03:40	55.1	55.1	55.1	57	40.1	0	0	---	0.00	30.042 
03:45	55.0	55.0	55.0	57	40.0	0	1	112	0.00	30.048 
03:50	54.8	54.8	54.8	57	39.9	0	1	112	0.00	30.048 
03:55	54.8	54.8	54.8	58	40.3	0	1	112	0.00	30.048 
04:00	54.7	54.7	54.7	58	40.2	0	0	---	0.00	30.046 
04:05	54.4	54.4	54.4	58	39.9	0	0	---	0.00	30.046 
04:10	54.2	54.2	54.2	59	40.2	0	0	---	0.00	30.046 
04:15	54.1	54.1	54.1	59	40.1	0	0	---	0.00	30.046 
04:20	53.9	53.9	53.9	61	40.8	0	0	---	0.00	30.046 
04:25	53.6	53.6	53.6	62	40.9	0	0	---	0.00	30.046 
04:30	53.5	53.5	53.5	62	40.8	0	0	---	0.00	30.044 
04:35	53.3	53.3	53.3	62	40.6	0	0	---	0.00	30.044 
04:40	53.2	53.2	53.2	63	40.9	0	0	---	0.00	30.044 
04:45	53.1	53.1	53.1	64	41.2	0	0	---	0.00	30.048 
04:50	52.9	52.9	52.9	64	41.1	0	0	---	0.00	30.048 
04:55	52.9	52.9	52.9	65	41.5	0	0	---	0.00	30.048 
05:00	52.8	52.8	52.8	65	41.4	0	0	---	0.00	30.048 
05:05	52.8	52.8	52.8	67	42.1	0	0	---	0.00	30.048 
05:10	52.9	52.9	52.9	68	42.6	0	0	---	0.00	30.048 
05:15	52.9	52.9	52.9	69	43.0	0	0	---	0.00	30.056 
05:20	53.1	53.1	53.1	68	42.8	0	0	---	0.00	30.056 
05:25	53.1	53.1	53.1	68	42.8	0	0	---	0.00	30.056 
05:30	53.1	53.1	53.1	67	42.4	0	0	---	0.00	30.058 
05:35	53.1	53.1	53.1	68	42.8	0	0	---	0.00	30.058 
05:40	52.9	52.9	52.9	68	42.6	0	0	---	0.00	30.058 
05:45	52.9	52.9	52.9	68	42.6	0	0	---	0.00	30.057 
05:50	53.1	53.1	53.1	69	43.2	0	0	---	0.00	30.057 
05:55	53.2	53.2	53.2	68	42.9	0	0	---	0.00	30.057 
06:00	53.3	53.3	53.3	68	43.0	0	0	---	0.00	30.056 
06:05	53.6	53.6	53.6	68	43.3	0	0	---	0.00	30.056 
06:10	53.8	53.8	53.8	67	43.1	0	0	---	0.00	30.056 
06:15	54.1	54.1	54.1	66	43.0	0	2	112	0.00	30.063 
06:20	54.2	54.2	54.2	66	43.1	0	0	---	0.00	30.063 
06:25	54.4	54.4	54.4	67	43.7	0	0	---	0.00	30.063 
06:30	54.5	54.5	54.5	67	43.8	0	0	---	0.00	30.067 
06:35	54.5	54.5	54.5	67	43.8	0	1	112	0.00	30.067 
06:40	54.7	54.7	54.7	66	43.6	0	0	---	0.00	30.067 
06:45	54.7	54.7	54.7	66	43.6	0	1	112	0.00	30.075 
06:50	54.8	54.8	54.8	66	43.7	0	1	112	0.00	30.075 
06:55	55.1	55.1	55.1	65	43.5	0	1	112	0.00	30.075 
07:00	55.3	55.3	55.3	65	43.7	0	1	112	0.00	30.077 
07:05	55.6	55.6	55.6	65	44.0	0	1	112	0.00	30.077 
07:10	55.7	55.7	55.7	65	44.1	0	2	112	0.00	30.077 
07:15	55.7	55.7	55.7	64	43.7	0	1	112	0.00	30.078 
07:20	55.9	55.9	55.9	64	43.9	0	1	112	0.00	30.078 
07:25	55.9	55.9	55.9	64	43.9	0	1	112	0.00	30.078 
07:30	56.0	56.0	56.0	65	44.4	0	0	---	0.00	30.085 
07:35	56.0	56.0	56.0	65	44.4	0	0	---	0.00	30.085 
07:40	56.0	56.0	56.0	66	44.8	0	1	112	0.00	30.085 
07:45	56.0	56.0	56.0	66	44.8	0	2	112	0.00	30.091 
07:50	56.2	56.2	56.2	65	44.6	0	3	112	0.00	30.091 
07:55	56.3	56.3	56.3	65	44.7	0	4	112	0.00	30.091 
08:00	56.3	56.3	56.3	66	45.1	0	1	112	0.00	30.092 
08:05	56.5	56.5	56.5	67	45.7	0	1	112	0.00	30.092 
08:10	56.6	56.6	56.6	66	45.4	0	1	112	0.00	30.092 
08:15	56.7	56.7	56.7	66	45.5	0	1	112	0.00	30.096 
08:20	56.9	56.9	56.9	66	45.7	0	1	112	0.00	30.096 
08:25	57.0	57.0	57.0	66	45.8	0	0	---	0.00	30.096 
08:30	57.2	57.2	57.2	66	45.9	0	2	112	0.00	30.090 
08:35	57.5	57.5	57.5	65	45.8	0	2	112	0.00	30.090 
08:40	57.8	57.8	57.8	66	46.5	0	2	112	0.00	30.090 
08:45	58.3	58.3	58.3	65	46.6	0	1	112	0.00	30.081 
08:50	59.0	59.0	59.0	65	47.2	0	3	112	0.00	30.081 
08:55	60.1	60.1	60.1	62	47.0	1	2	112	0.00	30.081 
09:00	61.3	61.3	61.3	59	46.8	1	3	112	0.00	30.079 
09:05	62.1	62.1	62.1	57	46.7	2	4	112	0.00	30.079 
09:10	62.6	62.6	62.6	57	47.1	1	3	112	0.00	30.079 
09:15	63.1	63.1	63.1	57	47.6	1	3	112	0.00	30.077 
09:20	63.4	63.4	63.4	54	46.5	2	4	112	0.00	30.077 
09:25	63.5	63.5	63.5	56	47.5	1	5	112	0.00	30.077 
09:30	63.9	63.9	63.9	55	47.4	1	3	90	0.00	30.075 
09:35	64.7	64.7	64.7	54	47.7	1	4	90	0.00	30.075 
09:40	65.0	65.0	65.0	53	47.4	2	5	90	0.00	30.075 
09:45	65.2	65.2	65.2	53	47.6	1	3	90	0.00	30.068 
09:50	65.3	65.3	65.3	53	47.7	1	4	90	0.00	30.068 
09:55	65.8	65.8	65.8	54	48.7	1	4	90	0.00	30.068 
10:00	66.1	66.1	66.1	52	48.0	1	4	90	0.00	30.074 
10:05	66.3	66.3	66.3	54	49.1	1	4	90	0.00	30.074 
10:10	66.4	66.4	66.4	53	48.7	1	4	90	0.00	30.074 
10:15	66.9	66.9	66.9	55	50.2	0	3	90	0.00	30.069 
10:20	67.8	67.8	67.8	50	48.5	1	3	90	0.00	30.069 
10:25	67.9	67.9	67.9	50	48.6	1	3	90	0.00	30.069 
10:30	68.1	68.1	68.1	51	49.3	1	4	90	0.00	30.064 
10:35	68.3	68.3	68.3	50	48.9	1	4	90	0.00	30.064 
10:40	68.6	68.6	68.6	51	49.7	1	3	90	0.00	30.064 
10:45	69.6	69.6	69.6	51	50.7	0	2	90	0.00	30.065 
10:50	70.4	70.4	70.4	50	50.9	1	4	90	0.00	30.065 
10:55	70.6	70.6	70.6	49	50.5	1	3	90	0.00	30.065 
11:00	70.4	70.4	70.4	50	50.9	1	4	90	0.00	30.063 
11:05	69.8	69.8	69.8	50	50.3	1	4	90	0.00	30.063 
11:10	69.6	69.6	69.6	52	51.2	1	3	90	0.00	30.063 
11:15	69.8	69.8	69.8	51	50.8	1	3	90	0.00	30.067 
11:20	70.1	70.1	70.1	51	51.1	1	3	90	0.00	30.067 
11:25	70.3	70.3	70.3	51	51.3	1	3	90	0.00	30.067 
11:30	70.3	70.3	70.3	51	51.3	0	2	90	0.00	30.066 
11:35	70.4	70.4	70.4	55	53.4	0	1	90	0.00	30.066 
11:40	70.6	70.6	70.6	51	51.6	1	4	90	0.00	30.066 
11:45	70.9	70.9	70.9	51	51.9	1	3	90	0.00	30.063 
11:50	71.3	71.3	71.3	51	52.2	1	4	90	0.00	30.063 
11:55	71.6	71.6	71.6	50	52.0	1	4	90	0.00	30.063 
12:00	71.8	71.8	71.8	50	52.1	1	3	90	0.00	30.062 
12:05	72.1	72.1	72.1	52	53.5	1	3	90	0.00	30.062 
12:10	72.5	72.5	72.5	50	52.8	1	3	90	0.00	30.062 
12:15	73.0	73.0	73.0	49	52.7	0	2	90	0.00	30.055 
12:20	73.2	73.2	73.2	49	52.9	1	4	90	0.00	30.055 
12:25	73.5	73.5	73.5	51	54.2	0	1	90	0.00	30.055 
12:30	73.5	73.5	73.5	48	52.6	1	2	90	0.00	30.056 
12:35	73.5	73.5	73.5	50	53.7	0	2	90	0.00	30.056 
12:40	73.5	73.5	73.5	50	53.7	0	2	90	0.00	30.056 
12:45	73.5	73.5	73.5	50	53.7	1	3	90	0.00	30.055 
12:50	73.5	73.5	73.5	50	53.7	1	3	90	0.00	30.055 
12:55	73.9	73.9	73.9	50	54.1	0	2	90	0.00	30.055 
13:00	74.2	74.2	74.2	50	54.3	1	3	90	0.00	30.052 
13:05	74.7	74.7	74.7	49	54.3	0	2	90	0.00	30.052 
13:10	75.3	75.3	77.7	48	54.2	2	5	90	0.00	30.052 
13:15	75.3	75.3	77.7	49	54.8	1	3	90	0.00	30.051 
13:20	74.9	74.9	74.9	47	53.3	1	4	90	0.00	30.051 
13:25	74.7	74.7	74.7	50	54.8	1	4	90	0.00	30.051 
13:30	75.1	75.1	77.7	50	55.2	1	3	90	0.00	30.043 
13:35	75.6	75.6	77.9	49	55.1	1	2	90	0.00	30.043 
13:40	75.6	75.6	77.9	48	54.5	1	3	90	0.00	30.043 
13:45	75.6	75.6	77.9	49	55.1	0	2	90	0.00	30.040 
13:50	75.8	75.8	78.0	50	55.8	2	4	90	0.00	30.040 
13:55	75.6	75.6	77.9	50	55.6	0	4	90	0.00	30.040 
14:00	75.6	75.6	77.9	50	55.6	0	3	90	0.00	30.036 
14:05	75.6	75.6	77.9	49	55.1	1	2	90	0.00	30.036 
14:10	75.6	75.6	77.9	50	55.6	0	2	90	0.00	30.036 
14:15	75.6	75.6	77.9	48	54.5	0	2	90	0.00	30.031 
14:20	75.6	75.6	77.9	50	55.6	0	2	90	0.00	30.031 
14:25	75.6	75.6	77.9	48	54.5	1	4	90	0.00	30.031 
14:30	75.4	75.4	77.8	49	54.9	0	2	90	0.00	30.026 
14:35	75.6	75.6	77.9	48	54.5	0	1	90	0.00	30.026 
14:40	75.6	75.6	77.9	48	54.5	1	3	90	0.00	30.026 
14:45	75.6	75.6	77.9	48	54.5	0	2	112	0.00	30.026 
14:50	75.4	75.4	77.8	49	54.9	1	2	112	0.00	30.026 
14:55	75.1	75.1	77.7	50	55.2	2	3	112	0.00	30.026 
15:00	75.1	75.1	77.7	50	55.2	1	3	112	0.00	30.022 
15:05	75.1	75.1	77.7	51	55.7	1	4	68	0.00	30.022 
15:10	75.3	75.3	77.7	50	55.4	0	1	68	0.00	30.022 
15:15	75.6	75.6	77.9	49	55.1	1	4	68	0.00	30.019 
15:20	75.6	75.6	77.9	50	55.6	1	5	68	0.00	30.019 
15:25	75.8	75.8	78.0	51	56.4	0	2	68	0.00	30.019 
15:30	75.8	75.8	78.0	49	55.3	2	5	68	0.00	30.013 
15:35	75.6	75.6	77.9	50	55.6	3	6	90	0.00	30.013 
15:40	75.8	75.8	78.0	50	55.8	1	4	90	0.00	30.013 
15:45	76.1	76.1	78.1	50	56.1	2	5	90	0.00	30.011 
15:50	76.5	76.5	78.3	51	57.0	2	5	90	0.00	30.011 
15:55	76.8	76.8	78.5	49	56.2	1	4	90	0.00	30.011 
16:00	77.2	77.2	78.7	50	57.1	2	5	90	0.00	30.008 
16:05	77.7	77.7	78.9	48	56.4	1	3	90	0.00	30.008 
16:10	77.7	77.7	78.9	48	56.4	2	4	90	0.00	30.008 
16:15	77.7	77.7	79.0	49	57.0	1	5	112	0.00	30.005 
16:20	77.4	77.4	78.8	49	56.7	2	6	90	0.00	30.005 
16:25	76.8	76.8	78.4	48	55.6	2	5	112	0.00	30.005 
16:30	76.8	76.8	78.5	50	56.7	1	4	90	0.00	29.999 
16:35	77.0	77.0	78.6	49	56.4	2	5	90	0.00	29.999 
16:40	77.0	77.0	78.6	49	56.4	3	6	90	0.00	29.999 
16:45	77.6	77.6	78.9	49	56.9	2	6	90	0.00	29.994 
16:50	77.9	77.9	79.1	48	56.6	2	6	90	0.00	29.994 
16:55	78.1	78.1	79.2	48	56.8	2	5	90	0.00	29.994 
17:00	78.5	78.5	79.5	49	57.7	2	5	112	0.00	29.994 
17:05	78.3	78.3	79.3	47	56.4	2	5	112	0.00	29.994 
17:10	78.1	78.1	79.3	50	57.9	1	4	112	0.00	29.994 
17:15	78.3	78.3	79.3	48	57.0	1	3	112	0.00	29.993 
17:20	78.6	78.6	79.4	45	55.5	1	3	112	0.00	29.993 
17:25	78.8	78.8	79.5	45	55.6	2	6	112	0.00	29.993 
17:30	79.0	79.0	79.6	45	55.8	1	4	90	0.00	29.990 
17:35	79.2	79.2	79.6	43	54.7	2	5	90	0.00	29.990 
17:40	79.4	79.4	79.9	45	56.2	1	4	90	0.00	29.990 
17:45	79.2	79.2	79.7	44	55.4	2	5	90	0.00	29.987 
17:50	79.2	79.2	79.7	44	55.4	1	5	112	0.00	29.987 
17:55	79.0	79.0	79.6	44	55.2	1	3	112	0.00	29.987 
18:00	78.6	78.6	79.4	45	55.5	1	3	112	0.00	29.985 
18:05	78.3	78.3	79.1	44	54.6	1	4	112	0.00	29.985 
18:10	78.1	78.1	79.1	46	55.6	1	4	112	0.00	29.985 
18:15	77.9	77.9	79.0	47	56.0	1	2	45	0.00	29.984 
18:20	77.7	77.7	78.9	48	56.4	1	3	68	0.00	29.984 
18:25	77.6	77.6	78.8	46	55.2	2	4	68	0.00	29.984 
18:30	77.4	77.4	78.7	47	55.6	0	2	68	0.00	29.979 
18:35	77.4	77.4	78.7	47	55.6	1	3	68	0.00	29.979 
18:40	77.4	77.4	78.8	49	56.7	0	2	68	0.00	29.979 
18:45	77.4	77.4	78.8	49	56.7	0	3	68	0.00	29.979 
18:50	77.4	77.4	78.8	49	56.7	1	4	68	0.00	29.979 
18:55	77.2	77.2	78.7	49	56.5	1	2	68	0.00	29.979 
19:00	77.4	77.4	78.8	49	56.7	1	4	90	0.00	29.982 
19:05	77.4	77.4	78.8	49	56.7	1	5	90	0.00	29.982 
19:10	77.4	77.4	78.8	50	57.3	1	4	90	0.00	29.982 
19:15	77.6	77.6	78.9	49	56.9	1	4	90	0.00	29.982 
19:20	77.6	77.6	78.8	47	55.8	2	5	90	0.00	29.982 
19:25	77.7	77.7	78.9	47	55.8	2	5	90	0.00	29.982 
19:30	77.6	77.6	78.8	47	55.8	2	5	68	0.00	29.978 
19:35	77.6	77.6	78.8	47	55.8	2	6	90	0.00	29.978 
19:40	77.2	77.2	78.6	47	55.4	2	6	90	0.00	29.978 
19:45	76.8	76.8	78.4	48	55.6	1	3	90	0.00	29.980 
19:50	76.7	76.7	78.4	48	55.5	1	6	90	0.00	29.980 
19:55	76.5	76.5	78.3	49	55.9	2	5	90	0.00	29.980 
20:00	76.3	76.3	78.2	49	55.7	2	4	112	0.00	29.980 
20:05	76.1	76.1	78.1	49	55.5	1	5	68	0.00	29.980 
20:10	76.0	76.0	78.1	50	56.0	2	5	68	0.00	29.980 
20:15	75.6	75.6	77.9	50	55.6	2	5	68	0.00	29.975 
20:20	75.4	75.4	77.8	51	56.0	1	4	68	0.00	29.975 
20:25	75.1	75.1	77.6	52	56.3	2	5	68	0.00	29.975 
20:30	74.9	74.9	74.9	53	56.6	1	3	90	0.00	29.975 
20:35	74.6	74.6	74.6	53	56.3	1	2	90	0.00	29.975 
20:40	74.2	74.2	74.2	54	56.5	1	3	90	0.00	29.975 
20:45	74.0	74.0	74.0	54	56.3	1	5	68	0.00	29.976 
20:50	73.7	73.7	73.7	55	56.5	1	5	112	0.00	29.976 
20:55	73.5	73.5	73.5	55	56.3	1	2	112	0.00	29.976 
21:00	73.2	73.2	73.2	56	56.5	1	3	112	0.00	29.977 
21:05	72.8	72.8	72.8	57	56.7	0	2	112	0.00	29.977 
21:10	72.5	72.5	72.5	58	56.9	0	1	112	0.00	29.977 
21:15	72.1	72.1	72.1	58	56.5	0	2	112	0.00	29.972 
21:20	71.8	71.8	71.8	59	56.7	0	2	112	0.00	29.972 
21:25	71.5	71.5	71.5	60	56.9	0	2	112	0.00	29.972 
21:30	71.3	71.3	71.3	59	56.2	2	6	90	0.00	29.978 
21:35	71.3	71.3	71.3	57	55.3	2	6	90	0.00	29.978 
21:40	71.3	71.3	71.3	55	54.3	2	6	90	0.00	29.978 
21:45	71.1	71.1	71.1	55	54.1	2	4	90	0.00	29.982 
21:50	70.9	70.9	70.9	55	53.9	3	6	90	0.00	29.982 
21:55	70.6	70.6	70.6	55	53.6	2	6	90	0.00	29.982 
22:00	70.3	70.3	70.3	54	52.9	2	4	90	0.00	29.988 
22:05	69.9	69.9	69.9	54	52.5	1	5	112	0.00	29.988 
22:10	69.4	69.4	69.4	54	52.0	1	4	112	0.00	29.988 
22:15	69.1	69.1	69.1	55	52.2	1	3	112	0.00	29.989 
22:20	68.8	68.8	68.8	55	52.0	1	5	112	0.00	29.989 
22:25	68.4	68.4	68.4	55	51.6	1	4	90	0.00	29.989 
22:30	68.3	68.3	68.3	55	51.5	1	4	90	0.00	29.989 
22:35	68.1	68.1	68.1	55	51.3	1	3	90	0.00	29.989 
22:40	67.8	67.8	67.8	55	51.0	1	3	90	0.00	29.989 
22:45	67.4	67.4	67.4	56	51.1	1	3	90	0.00	29.990 
22:50	67.3	67.3	67.3	56	51.1	1	3	90	0.00	29.990 
22:55	67.1	67.1	67.1	56	50.9	1	3	90	0.00	29.990 
23:00	66.9	66.9	66.9	57	51.2	0	1	90	0.00	29.992 
23:05	66.6	66.6	66.6	58	51.4	0	2	90	0.00	29.992 
23:10	66.3	66.3	66.3	57	50.6	1	3	90	0.00	29.992 
23:15	66.3	66.3	66.3	57	50.6	0	2	90	0.00	29.990 
23:20	66.0	66.0	66.0	58	50.8	0	1	90	0.00	29.990 
23:25	65.8	65.8	65.8	58	50.6	0	1	90	0.00	29.990 
23:30	65.6	65.6	65.6	58	50.4	0	1	90	0.00	29.992 
23:35	65.3	65.3	65.3	58	50.1	0	0	---	0.00	29.992 
23:40	65.2	65.2	65.2	59	50.5	0	0	---	0.00	29.992 
23:45	64.7	64.7	64.7	59	50.0	0	0	---	0.00	29.993 
23:50	64.2	64.2	64.2	61	50.5	0	0	---	0.00	29.993 
23:55	63.9	63.9	63.9	62	50.6	0	0	---	0.00	29.993 

CoCoRaHS
IN-AL-39
A2 Web Hosting
Creative Commons License
GoDaddy
search engine by freefind advanced

loaded 2018-11-15 16:31:45 • last modified 2010-11-18 10:43:29
Privacy PolicyDisclaimer
• wx.awcolley.com is powered by PmWiki v.2002016 •
• all content (unless otherwise noted) © 2018 A W Colley